Time;durP1;ratioP1;P1;durP2;ratioP2;P2;SDS_P1;SDS_P2;PMS_P1;PMS_P2;Temp;Humidity;BMP_temperature;BMP_pressure;BME280_temperature;BME280_humidity;BME280_pressure;Samples;Min_cycle;Max_cycle;Signal;HPM_P1;HPM_P2
2022/12/05 05:04:34;;;;;;;8.25;5.07;;;4.50;99.90;;;;;;5628164;23;20556;-61
2022/12/05 05:07:11;;;;;;;6.10;4.78;;;4.50;99.90;;;;;;4937617;29;20220;-62
2022/12/05 05:09:37;;;;;;;10.20;5.30;;;4.60;99.90;;;;;;4937701;29;20563;-61
2022/12/05 05:12:04;;;;;;;5.35;4.70;;;4.60;99.90;;;;;;4937489;29;20253;-61
2022/12/05 05:14:29;;;;;;;10.43;6.05;;;4.60;99.90;;;;;;4937173;29;20601;-62
2022/12/05 05:16:56;;;;;;;9.47;6.60;;;4.60;99.90;;;;;;4937134;29;20167;-62
2022/12/05 05:19:22;;;;;;;10.65;4.82;;;4.60;99.90;;;;;;4937121;29;20664;-60
2022/12/05 05:21:53;;;;;;;7.47;5.00;;;4.70;99.90;;;;;;4937366;29;20206;-61
2022/12/05 05:24:20;;;;;;;9.68;5.35;;;4.70;99.90;;;;;;4936024;29;20197;-61
2022/12/05 05:26:46;;;;;;;11.55;6.07;;;4.70;99.90;;;;;;4936767;29;20188;-61
2022/12/05 05:29:13;;;;;;;8.07;5.80;;;4.80;99.90;;;;;;4937340;29;20234;-61
2022/12/05 05:31:39;;;;;;;6.55;4.22;;;4.70;99.90;;;;;;4936618;29;20205;-61
2022/12/05 05:34:06;;;;;;;6.53;4.63;;;4.70;99.90;;;;;;4935443;29;20229;-62
2022/12/05 05:36:31;;;;;;;9.18;5.43;;;4.70;99.90;;;;;;4936615;29;20175;-61
2022/12/05 05:39:02;;;;;;;11.70;6.30;;;4.70;99.90;;;;;;4936359;29;20192;-61
2022/12/05 05:41:34;;;;;;;7.43;6.22;;;4.70;99.90;;;;;;4936708;29;20174;-61
2022/12/05 05:44:01;;;;;;;11.20;6.40;;;4.80;99.90;;;;;;4936332;29;20205;-61
2022/12/05 05:46:29;;;;;;;9.77;5.85;;;4.80;99.90;;;;;;4936771;29;20174;-61
2022/12/05 05:48:54;;;;;;;10.90;5.05;;;4.80;99.90;;;;;;4936804;29;20180;-61
2022/12/05 05:51:22;;;;;;;9.00;5.40;;;4.70;99.90;;;;;;4935125;29;20198;-63
2022/12/05 05:53:48;;;;;;;9.85;5.65;;;4.80;99.90;;;;;;4934318;29;20433;-61
2022/12/05 05:56:18;;;;;;;14.40;6.47;;;4.70;99.90;;;;;;4934538;29;20188;-62
2022/12/05 05:58:44;;;;;;;9.55;5.78;;;4.70;99.90;;;;;;4933413;29;20201;-62
2022/12/05 06:01:19;;;;;;;9.00;5.90;;;4.60;99.90;;;;;;4934771;29;20585;-61
2022/12/05 06:03:45;;;;;;;5.28;4.68;;;4.60;99.90;;;;;;4934434;29;20681;-61
2022/12/05 06:06:13;;;;;;;10.80;6.70;;;4.60;99.90;;;;;;4935585;29;20236;-61
2022/12/05 06:08:40;;;;;;;8.20;5.68;;;4.70;99.90;;;;;;4935247;29;20585;-62
2022/12/05 06:11:12;;;;;;;6.22;4.70;;;4.70;99.90;;;;;;4936428;29;20198;-62
2022/12/05 06:13:38;;;;;;;8.68;6.45;;;4.70;99.90;;;;;;4935939;29;20194;-61
2022/12/05 06:16:09;;;;;;;9.20;6.43;;;4.70;99.90;;;;;;4935390;29;20177;-62
2022/12/05 06:18:35;;;;;;;6.03;4.60;;;4.70;99.90;;;;;;4936374;29;20165;-62
2022/12/05 06:21:01;;;;;;;10.03;6.23;;;4.80;99.90;;;;;;4936250;29;20171;-61
2022/12/05 06:23:26;;;;;;;8.85;6.25;;;4.80;99.90;;;;;;4936045;29;20178;-61
2022/12/05 06:25:54;;;;;;;9.53;6.53;;;4.80;99.90;;;;;;4936293;29;20685;-62
2022/12/05 06:28:22;;;;;;;7.93;5.25;;;4.70;99.90;;;;;;4936243;29;20783;-61
2022/12/05 06:30:47;;;;;;;10.30;6.93;;;4.80;99.90;;;;;;4935436;29;20429;-63
2022/12/05 06:33:13;;;;;;;10.10;5.27;;;4.80;99.90;;;;;;4935826;29;20530;-61
2022/12/05 06:35:40;;;;;;;10.93;4.68;;;4.80;99.90;;;;;;4935946;29;20293;-62
2022/12/05 06:38:06;;;;;;;7.43;5.50;;;4.80;99.90;;;;;;4936003;29;20543;-62
2022/12/05 06:40:32;;;;;;;7.35;6.13;;;4.90;99.90;;;;;;4936097;29;20209;-62
2022/12/05 06:42:58;;;;;;;8.85;4.95;;;4.90;99.90;;;;;;4935756;29;20369;-60
2022/12/05 06:45:23;;;;;;;8.60;6.50;;;4.90;99.90;;;;;;4936044;29;20190;-62
2022/12/05 06:47:52;;;;;;;11.57;5.80;;;4.90;99.90;;;;;;4936122;29;20178;-61
2022/12/05 06:50:18;;;;;;;12.68;7.10;;;4.90;99.90;;;;;;4935922;29;20477;-62
2022/12/05 06:52:44;;;;;;;10.93;5.47;;;4.80;99.90;;;;;;4935396;29;20688;-61
2022/12/05 06:55:10;;;;;;;5.40;4.80;;;4.90;99.90;;;;;;4935931;29;20205;-63
2022/12/05 06:57:36;;;;;;;9.68;5.80;;;4.90;99.90;;;;;;4936001;29;20701;-65
2022/12/05 07:02:50;;;;;;;11.27;5.30;;;4.90;99.90;;;;;;4935811;29;20249;-61
2022/12/05 07:05:15;;;;;;;9.05;5.88;;;4.90;99.90;;;;;;4935657;29;20209;-61
2022/12/05 07:07:41;;;;;;;6.17;5.20;;;4.90;99.90;;;;;;4935858;29;20183;-61
2022/12/05 07:10:07;;;;;;;11.57;6.80;;;4.90;99.90;;;;;;4935948;29;20245;-61
2022/12/05 07:12:33;;;;;;;7.53;6.05;;;4.80;99.90;;;;;;4935537;29;20201;-62
2022/12/05 07:14:59;;;;;;;7.50;5.97;;;4.80;99.90;;;;;;4935721;29;20200;-62
2022/12/05 07:17:25;;;;;;;8.37;7.43;;;4.80;99.90;;;;;;4935660;29;20166;-61
2022/12/05 07:19:51;;;;;;;8.33;5.37;;;4.80;99.90;;;;;;4935982;29;20393;-60
2022/12/05 07:22:19;;;;;;;10.27;6.20;;;4.80;99.90;;;;;;4934508;29;20776;-62
2022/12/05 07:24:45;;;;;;;9.15;6.40;;;5.00;99.90;;;;;;4935242;29;20201;-62
2022/12/05 07:27:12;;;;;;;8.65;5.07;;;5.10;99.90;;;;;;4937632;29;20189;-61
2022/12/05 07:29:38;;;;;;;7.80;5.70;;;5.10;99.90;;;;;;4938903;29;20538;-61
2022/12/05 07:32:03;;;;;;;9.03;6.13;;;5.10;99.90;;;;;;4938525;29;20609;-65
2022/12/05 07:34:29;;;;;;;8.33;4.80;;;5.10;99.90;;;;;;4934464;29;20611;-61
2022/12/05 07:36:55;;;;;;;8.77;5.93;;;5.10;99.90;;;;;;4939229;29;20558;-61
2022/12/05 07:39:20;;;;;;;10.67;5.60;;;5.10;99.90;;;;;;4938190;29;20181;-62
2022/12/05 07:41:46;;;;;;;5.77;3.70;;;5.20;99.90;;;;;;4941604;29;20224;-61
2022/12/05 07:44:12;;;;;;;7.30;6.07;;;5.20;99.90;;;;;;4954349;29;20206;-62
2022/12/05 07:46:38;;;;;;;5.67;5.10;;;5.20;99.90;;;;;;4948267;29;20178;-63
2022/12/05 07:49:04;;;;;;;9.52;5.00;;;5.20;99.90;;;;;;4947422;29;20532;-63
2022/12/05 07:51:30;;;;;;;6.50;5.10;;;5.30;99.90;;;;;;4942635;29;20271;-62
2022/12/05 07:53:57;;;;;;;5.90;4.33;;;5.30;99.90;;;;;;4940384;29;20196;-62
2022/12/05 07:56:23;;;;;;;8.75;6.22;;;5.40;99.90;;;;;;4944035;29;20409;-60
2022/12/05 07:58:49;;;;;;;7.10;5.70;;;5.40;99.90;;;;;;4942456;29;20176;-63
2022/12/05 08:01:26;;;;;;;7.03;4.90;;;5.40;99.90;;;;;;4939505;29;20227;-63
2022/12/05 08:03:54;;;;;;;9.25;5.85;;;5.40;99.90;;;;;;4955939;29;20463;-61
2022/12/05 08:06:23;;;;;;;8.35;5.40;;;5.40;99.90;;;;;;4957533;28;20197;-61
2022/12/05 08:08:49;;;;;;;6.40;3.90;;;5.40;99.90;;;;;;4957346;28;20186;-61
2022/12/05 08:11:18;;;;;;;6.35;5.57;;;5.40;99.90;;;;;;4950585;28;20199;-61
2022/12/05 08:13:44;;;;;;;6.60;4.72;;;5.50;99.90;;;;;;4937983;29;20200;-61
2022/12/05 08:16:12;;;;;;;7.03;5.30;;;5.50;99.90;;;;;;4938726;29;20174;-61
2022/12/05 08:18:38;;;;;;;8.80;5.88;;;5.60;99.90;;;;;;4933713;29;20850;-63
2022/12/05 08:21:10;;;;;;;8.63;5.80;;;5.60;99.90;;;;;;4925649;29;20185;-66
2022/12/05 08:23:36;;;;;;;5.75;4.40;;;5.70;99.90;;;;;;4945482;29;20512;-62
2022/12/05 08:26:12;;;;;;;7.78;5.20;;;5.70;99.90;;;;;;4938210;29;20176;-61
2022/12/05 08:28:38;;;;;;;7.07;4.82;;;5.80;99.90;;;;;;4937139;29;20249;-62
2022/12/05 08:31:09;;;;;;;7.68;5.10;;;5.80;99.90;;;;;;4935409;29;20260;-64
2022/12/05 08:33:35;;;;;;;9.68;5.18;;;5.80;99.90;;;;;;4936673;29;20223;-60
2022/12/05 08:36:06;;;;;;;10.87;6.07;;;5.80;99.90;;;;;;4937850;29;20218;-63
2022/12/05 08:38:32;;;;;;;12.63;5.03;;;5.80;99.90;;;;;;4936898;29;20170;-63
2022/12/05 08:41:05;;;;;;;6.93;4.22;;;5.80;99.90;;;;;;4938010;29;20270;-63
2022/12/05 08:43:31;;;;;;;7.15;4.38;;;5.80;99.90;;;;;;4939173;29;20671;-65
2022/12/05 08:45:58;;;;;;;5.70;5.20;;;5.80;99.90;;;;;;4937383;29;20181;-62
2022/12/05 08:48:25;;;;;;;8.25;5.82;;;5.70;99.90;;;;;;4937340;29;20184;-63
2022/12/05 08:50:51;;;;;;;6.32;4.25;;;5.70;99.90;;;;;;4937422;29;20175;-63
2022/12/05 08:53:16;;;;;;;9.57;5.40;;;5.60;99.90;;;;;;4932630;29;20180;-62
2022/12/05 08:55:44;;;;;;;8.57;6.60;;;5.70;99.90;;;;;;4929662;29;20208;-64
2022/12/05 08:58:10;;;;;;;6.43;4.80;;;5.70;99.90;;;;;;4918510;29;20602;-64
2022/12/05 09:00:35;;;;;;;8.67;5.80;;;5.70;99.90;;;;;;4932861;29;20185;-61
2022/12/05 09:03:01;;;;;;;6.00;5.17;;;5.70;99.90;;;;;;4937787;29;20421;-61
2022/12/05 09:05:27;;;;;;;5.13;4.20;;;5.80;99.90;;;;;;4936930;29;20216;-61
2022/12/05 09:07:53;;;;;;;11.13;5.33;;;5.80;99.90;;;;;;4936918;29;20849;-63
2022/12/05 09:10:18;;;;;;;10.23;6.03;;;5.90;99.90;;;;;;4937048;29;20216;-62
2022/12/05 09:12:44;;;;;;;8.10;5.33;;;5.90;99.90;;;;;;4931484;29;20471;-62
2022/12/05 09:15:11;;;;;;;10.50;4.97;;;6.00;99.90;;;;;;4939373;29;20197;-61
2022/12/05 09:17:37;;;;;;;5.35;4.85;;;6.00;99.90;;;;;;4937018;29;20547;-60
2022/12/05 09:20:05;;;;;;;7.80;3.45;;;6.10;99.90;;;;;;4951475;29;20206;-62
2022/12/05 09:22:31;;;;;;;8.38;5.00;;;6.20;99.90;;;;;;4954965;28;20183;-62
2022/12/05 09:24:56;;;;;;;5.33;4.63;;;6.20;99.90;;;;;;4955979;28;20607;-63
2022/12/05 09:27:22;;;;;;;5.67;4.43;;;6.30;99.90;;;;;;4942858;29;20438;-65
2022/12/05 09:29:47;;;;;;;4.40;4.00;;;6.30;99.90;;;;;;4936574;29;20278;-61
2022/12/05 09:32:13;;;;;;;7.07;4.30;;;6.30;99.90;;;;;;4936193;29;20207;-63
2022/12/05 09:34:39;;;;;;;6.30;4.93;;;6.40;99.90;;;;;;4935675;29;20253;-63
2022/12/05 09:37:06;;;;;;;4.33;3.70;;;6.40;99.90;;;;;;4937401;29;20208;-62
2022/12/05 09:39:32;;;;;;;5.35;4.68;;;6.50;99.90;;;;;;4917634;29;20178;-63
2022/12/05 09:42:32;;;;;;;5.10;4.60;;;6.50;99.90;;;;;;4925423;29;20273;-62
2022/12/05 09:45:37;;;;;;;9.23;5.50;;;6.60;99.90;;;;;;4918841;28;20218;-65
2022/12/05 09:48:14;;;;;;;4.25;3.80;;;6.60;99.90;;;;;;4926719;29;20707;-64
2022/12/05 09:50:47;;;;;;;5.60;4.40;;;6.70;99.90;;;;;;4936538;29;20206;-63
2022/12/05 09:53:22;;;;;;;4.07;3.15;;;6.70;99.90;;;;;;4933458;29;20184;-64
2022/12/05 09:56:16;;;;;;;7.30;5.63;;;6.70;99.90;;;;;;4955712;29;20179;-65
2022/12/05 09:58:50;;;;;;;6.68;4.45;;;6.70;99.90;;;;;;4932948;28;20193;-64
2022/12/05 10:01:27;;;;;;;5.00;4.55;;;6.70;99.90;;;;;;4936516;29;20229;-63
2022/12/05 10:04:22;;;;;;;4.68;4.13;;;6.70;99.90;;;;;;4935296;29;20205;-63
2022/12/05 10:07:00;;;;;;;4.50;3.17;;;6.70;99.90;;;;;;4936316;29;20197;-63
2022/12/05 10:09:37;;;;;;;4.15;3.75;;;6.70;99.90;;;;;;4936181;29;20230;-63
2022/12/05 10:12:06;;;;;;;6.05;4.13;;;6.70;99.90;;;;;;4935567;29;20197;-67
2022/12/05 10:14:57;;;;;;;3.63;3.30;;;6.70;99.90;;;;;;4935595;29;20282;-62
2022/12/05 10:17:36;;;;;;;4.65;3.05;;;6.70;99.90;;;;;;4923647;29;20649;-64
2022/12/05 10:20:15;;;;;;;6.47;3.88;;;6.60;99.90;;;;;;4927567;29;20228;-63
2022/12/05 10:23:03;;;;;;;5.10;4.05;;;6.60;99.90;;;;;;4936023;29;20259;-63
2022/12/05 10:25:31;;;;;;;6.57;4.85;;;6.60;99.90;;;;;;4928514;29;20208;-62
2022/12/05 10:28:00;;;;;;;6.55;4.43;;;6.60;99.90;;;;;;4927981;29;20185;-63
2022/12/05 10:30:35;;;;;;;4.80;3.65;;;6.60;99.90;;;;;;4924754;29;20207;-63
2022/12/05 10:33:10;;;;;;;4.45;4.00;;;6.60;99.90;;;;;;4932994;29;20267;-64
2022/12/05 10:35:37;;;;;;;3.95;2.90;;;6.60;99.90;;;;;;4935160;29;20295;-63
2022/12/05 10:38:26;;;;;;;8.23;4.90;;;6.60;99.90;;;;;;4945436;29;20179;-61
2022/12/05 10:40:57;;;;;;;4.55;4.10;;;6.60;99.90;;;;;;4945864;28;20184;-67
2022/12/05 10:43:27;;;;;;;6.13;4.15;;;6.70;99.90;;;;;;4944216;29;20529;-64
2022/12/05 10:45:54;;;;;;;8.68;4.85;;;6.80;99.90;;;;;;4935565;29;20177;-63
2022/12/05 10:48:21;;;;;;;4.70;4.25;;;6.80;99.90;;;;;;4935466;29;20182;-64
2022/12/05 10:50:49;;;;;;;5.47;4.95;;;7.00;99.90;;;;;;4928683;29;20657;-61
2022/12/05 10:53:23;;;;;;;4.10;3.70;;;7.00;99.90;;;;;;4935614;29;20189;-62
2022/12/05 10:55:52;;;;;;;4.90;3.67;;;7.10;99.90;;;;;;4932932;29;20650;-63
2022/12/05 10:58:22;;;;;;;6.18;4.60;;;7.20;99.90;;;;;;4946529;29;20215;-63
2022/12/05 11:01:15;;;;;;;6.18;3.88;;;7.30;99.90;;;;;;4936772;28;20270;-63
2022/12/05 11:03:42;;;;;;;4.72;4.10;;;7.40;99.90;;;;;;4931030;29;20624;-63
2022/12/05 11:06:29;;;;;;;6.07;4.47;;;7.40;99.90;;;;;;4939526;29;20192;-62
2022/12/05 11:08:57;;;;;;;6.50;4.00;;;7.40;99.90;;;;;;4937238;29;20178;-63
2022/12/05 11:11:27;;;;;;;4.40;3.92;;;7.40;99.90;;;;;;4921319;29;20206;-69
2022/12/05 11:14:05;;;;;;;5.78;4.35;;;7.50;99.90;;;;;;4923964;29;20209;-65
2022/12/05 11:16:37;;;;;;;6.05;4.50;;;7.50;99.90;;;;;;4939804;29;20187;-63
2022/12/05 11:19:21;;;;;;;9.25;5.40;;;7.60;99.90;;;;;;4941098;29;20174;-65
2022/12/05 11:21:48;;;;;;;6.20;4.10;;;7.70;99.90;;;;;;4955569;29;20193;-64
2022/12/05 11:24:37;;;;;;;5.45;4.10;;;7.70;99.90;;;;;;4958673;29;20211;-62
2022/12/05 11:27:14;;;;;;;4.47;4.05;;;7.70;99.90;;;;;;4960077;28;20191;-63
2022/12/05 11:29:41;;;;;;;9.90;4.97;;;7.80;99.90;;;;;;4958577;29;20208;-63
2022/12/05 11:32:23;;;;;;;4.90;4.30;;;7.80;99.90;;;;;;4924727;28;20213;-63
2022/12/05 11:34:55;;;;;;;6.75;5.22;;;7.90;99.90;;;;;;4938105;29;20228;-64
2022/12/05 11:37:29;;;;;;;9.18;5.43;;;8.00;99.90;;;;;;4953406;29;20538;-64
2022/12/05 11:39:55;;;;;;;6.50;5.20;;;8.00;99.90;;;;;;4939073;29;20177;-64
2022/12/05 11:42:38;;;;;;;5.40;4.40;;;8.00;99.90;;;;;;4941492;29;20641;-63
2022/12/05 11:45:28;;;;;;;5.00;4.60;;;8.10;99.90;;;;;;4920071;29;20946;-64
2022/12/05 11:48:06;;;;;;;7.57;4.75;;;8.20;99.90;;;;;;4927088;29;20193;-64
2022/12/05 11:50:46;;;;;;;4.65;4.25;;;8.20;99.90;;;;;;4939150;29;20177;-64
2022/12/05 11:53:39;;;;;;;6.30;4.68;;;8.30;99.90;;;;;;4938292;29;20233;-64
2022/12/05 11:56:14;;;;;;;6.60;5.03;;;8.30;99.90;;;;;;4938399;29;20181;-63
2022/12/05 11:59:04;;;;;;;6.30;4.20;;;8.30;99.90;;;;;;4937176;29;20177;-63
2022/12/05 12:01:41;;;;;;;5.47;4.05;;;8.30;99.90;;;;;;4924311;29;20186;-65
2022/12/05 12:04:34;;;;;;;6.55;4.30;;;8.30;99.90;;;;;;4954208;29;20287;-67
2022/12/05 12:07:27;;;;;;;7.43;6.60;;;8.20;99.90;;;;;;4938125;29;20185;-66
2022/12/05 12:10:10;;;;;;;10.32;7.00;;;8.20;99.90;;;;;;4921078;29;20253;-68
2022/12/05 12:12:46;;;;;;;6.32;5.72;;;8.20;99.90;;;;;;4936821;29;20201;-63
2022/12/05 12:15:40;;;;;;;7.55;5.18;;;8.00;99.90;;;;;;4928556;29;20190;-65
2022/12/05 12:18:51;;;;;;;6.47;4.88;;;8.00;99.90;;;;;;4857891;29;20195;-64
2022/12/05 12:21:54;;;;;;;9.30;5.80;;;7.90;99.90;;;;;;4916293;29;20248;-64
2022/12/05 12:24:32;;;;;;;7.88;5.25;;;7.80;99.90;;;;;;4916600;29;20300;-64
2022/12/05 12:27:08;;;;;;;5.47;4.95;;;7.70;99.90;;;;;;4919496;29;20216;-65
2022/12/05 12:29:58;;;;;;;6.53;5.00;;;7.70;99.90;;;;;;4919348;29;20173;-64
2022/12/05 12:32:42;;;;;;;7.72;4.80;;;7.60;99.90;;;;;;4920140;29;20320;-65
2022/12/05 12:35:16;;;;;;;5.38;4.50;;;7.70;99.90;;;;;;4919456;29;20186;-64
2022/12/05 12:37:50;;;;;;;9.45;6.05;;;7.80;99.90;;;;;;4919476;29;20177;-65
2022/12/05 12:40:21;;;;;;;8.73;5.45;;;7.70;99.90;;;;;;4919444;29;20178;-65
2022/12/05 12:42:52;;;;;;;6.88;4.93;;;7.70;99.90;;;;;;4919936;29;20276;-67
2022/12/05 12:46:22;;;;;;;8.20;5.65;;;7.70;99.90;;;;;;4937588;29;20213;-66
2022/12/05 12:48:50;;;;;;;6.43;4.72;;;7.70;99.90;;;;;;4878980;29;20219;-64
2022/12/05 12:51:16;;;;;;;7.32;4.43;;;7.80;99.90;;;;;;4914329;29;20293;-65
2022/12/05 12:54:17;;;;;;;6.43;4.50;;;7.80;99.90;;;;;;4928427;29;20291;-65
2022/12/05 12:57:04;;;;;;;6.80;4.53;;;7.80;99.90;;;;;;4923326;29;20185;-65
2022/12/05 12:59:47;;;;;;;6.15;5.00;;;7.80;99.90;;;;;;4932979;29;20268;-66
2022/12/05 13:02:42;;;;;;;6.88;4.45;;;7.80;99.90;;;;;;4955615;29;20196;-65
2022/12/05 13:05:34;;;;;;;8.27;5.35;;;7.80;99.90;;;;;;4956632;28;20204;-64
2022/12/05 13:08:24;;;;;;;6.60;5.38;;;7.70;99.90;;;;;;4956809;29;20180;-66
2022/12/05 13:10:51;;;;;;;6.10;5.22;;;7.70;99.90;;;;;;4928745;28;20237;-64
2022/12/05 13:13:39;;;;;;;7.38;5.53;;;7.80;99.90;;;;;;4926974;29;20206;-65
2022/12/05 13:16:07;;;;;;;8.35;5.45;;;7.80;99.90;;;;;;4917587;29;20246;-65
2022/12/05 13:18:33;;;;;;;5.53;5.03;;;7.90;99.90;;;;;;4920762;29;20182;-65
2022/12/05 13:21:04;;;;;;;7.35;4.18;;;7.90;99.90;;;;;;4947802;29;20168;-65
2022/12/05 13:23:33;;;;;;;9.25;5.50;;;7.90;99.90;;;;;;4955985;28;20173;-65
2022/12/05 13:26:06;;;;;;;5.40;4.18;;;7.80;99.90;;;;;;4921944;28;20213;-65
2022/12/05 13:28:41;;;;;;;5.68;4.43;;;7.80;99.90;;;;;;4935932;29;20213;-64
2022/12/05 13:31:08;;;;;;;10.93;6.47;;;7.80;99.90;;;;;;4935494;29;20181;-66
2022/12/05 13:33:48;;;;;;;8.77;5.68;;;7.80;99.90;;;;;;4936613;29;20184;-65
2022/12/05 13:42:16;;;;;;;5.70;4.25;;;7.50;99.90;;;;;;4918390;29;20213;-63
2022/12/05 13:44:54;;;;;;;8.65;5.63;;;7.50;99.90;;;;;;4917487;29;20614;-62
2022/12/05 13:47:50;;;;;;;6.32;5.20;;;7.50;99.90;;;;;;4917715;29;20201;-62
2022/12/05 13:50:40;;;;;;;7.95;5.30;;;7.40;99.90;;;;;;4922843;29;20189;-63
2022/12/05 13:53:22;;;;;;;11.15;5.28;;;7.40;99.90;;;;;;4934715;29;20200;-64
2022/12/05 13:55:58;;;;;;;6.30;5.68;;;7.30;99.90;;;;;;4936793;29;20235;-64
2022/12/05 13:58:24;;;;;;;5.00;4.43;;;7.30;99.90;;;;;;4936653;29;20761;-63
2022/12/05 14:01:10;;;;;;;5.87;4.00;;;7.30;99.90;;;;;;4935148;29;20260;-65
2022/12/05 14:03:39;;;;;;;4.20;3.80;;;7.30;99.90;;;;;;4935934;29;20216;-63
2022/12/05 14:06:06;;;;;;;6.10;5.50;;;7.30;99.90;;;;;;4936863;29;20228;-63
2022/12/05 14:08:34;;;;;;;5.50;4.22;;;7.30;99.90;;;;;;4932412;29;20185;-63
2022/12/05 14:11:04;;;;;;;5.68;5.03;;;7.30;99.90;;;;;;4935285;29;20174;-63
2022/12/05 14:13:32;;;;;;;5.15;3.80;;;7.20;99.90;;;;;;4935363;29;20255;-63
2022/12/05 14:16:29;;;;;;;5.47;4.85;;;7.20;99.90;;;;;;4936116;29;20181;-64
2022/12/05 14:19:04;;;;;;;6.57;5.75;;;7.10;99.90;;;;;;4930094;29;20190;-64
2022/12/05 14:21:54;;;;;;;8.15;6.55;;;7.10;99.90;;;;;;4935631;29;20214;-63
2022/12/05 14:24:37;;;;;;;8.70;5.28;;;7.10;99.90;;;;;;4935070;29;20288;-64
2022/12/05 14:27:42;;;;;;;6.63;5.18;;;7.00;99.90;;;;;;4933673;29;20180;-64
2022/12/05 14:30:09;;;;;;;7.50;4.90;;;6.90;99.90;;;;;;4924632;29;20276;-63
2022/12/05 14:32:37;;;;;;;7.18;4.95;;;6.90;99.90;;;;;;4931331;29;20229;-63
2022/12/05 14:35:14;;;;;;;6.65;5.22;;;6.80;99.90;;;;;;4934827;29;20223;-63
2022/12/05 14:37:52;;;;;;;7.47;4.47;;;6.80;99.90;;;;;;4935437;29;20253;-63
2022/12/05 14:40:33;;;;;;;8.60;5.18;;;6.70;99.90;;;;;;4932406;29;20196;-64
2022/12/05 14:43:01;;;;;;;8.45;6.28;;;6.70;99.90;;;;;;4934660;29;20188;-63
2022/12/05 14:45:37;;;;;;;6.70;5.43;;;6.60;99.90;;;;;;4935575;29;20215;-63
2022/12/05 14:48:37;;;;;;;6.70;6.10;;;6.60;99.90;;;;;;4935921;29;20180;-63
2022/12/05 14:51:29;;;;;;;6.07;5.03;;;6.60;99.90;;;;;;4933589;29;20187;-63
2022/12/05 14:54:15;;;;;;;6.88;4.57;;;6.60;99.90;;;;;;4934854;29;20254;-63
2022/12/05 14:56:49;;;;;;;6.93;5.90;;;6.60;99.90;;;;;;4916458;29;20223;-63
2022/12/05 14:59:31;;;;;;;9.45;4.75;;;6.60;99.90;;;;;;4919449;29;20180;-63
2022/12/05 15:02:01;;;;;;;8.63;5.13;;;6.60;99.90;;;;;;4923672;29;20188;-64
2022/12/05 15:04:47;;;;;;;7.55;5.32;;;6.60;99.90;;;;;;4934766;29;20551;-63
2022/12/05 15:07:16;;;;;;;10.00;6.53;;;6.60;99.90;;;;;;4934771;29;20202;-63
2022/12/05 15:10:03;;;;;;;8.73;6.70;;;6.50;99.90;;;;;;4935863;29;20560;-63
2022/12/05 15:12:36;;;;;;;8.45;6.03;;;6.50;99.90;;;;;;4934828;29;20200;-63
2022/12/05 15:15:21;;;;;;;8.23;6.13;;;6.50;99.90;;;;;;4935127;29;20202;-63
2022/12/05 15:17:55;;;;;;;7.63;6.50;;;6.50;99.90;;;;;;4935669;29;20533;-63
2022/12/05 15:20:21;;;;;;;8.55;7.20;;;6.40;99.90;;;;;;4935467;29;20176;-63
2022/12/05 15:22:46;;;;;;;10.83;6.50;;;6.40;99.90;;;;;;4916708;29;20385;-64
2022/12/05 15:25:30;;;;;;;9.97;7.00;;;6.30;99.90;;;;;;4932673;29;20208;-64
2022/12/05 15:28:03;;;;;;;6.75;6.05;;;6.30;99.90;;;;;;4935043;29;20235;-63
2022/12/05 15:30:31;;;;;;;9.13;6.03;;;6.20;99.90;;;;;;4935357;29;20184;-63
2022/12/05 15:32:57;;;;;;;7.93;5.25;;;6.30;99.90;;;;;;4934098;29;20265;-63
2022/12/05 15:35:26;;;;;;;11.07;7.43;;;6.30;99.90;;;;;;4934481;29;20209;-63
2022/12/05 15:37:53;;;;;;;12.90;7.35;;;6.30;99.90;;;;;;4922870;29;20190;-63
2022/12/05 15:40:22;;;;;;;11.43;6.38;;;6.30;99.90;;;;;;4919860;29;20243;-62
2022/12/05 15:42:54;;;;;;;8.75;5.70;;;6.30;99.90;;;;;;4934999;29;20221;-63
2022/12/05 15:45:27;;;;;;;7.82;5.10;;;6.20;99.90;;;;;;4935260;29;20765;-63
2022/12/05 15:47:56;;;;;;;9.85;7.10;;;6.20;99.90;;;;;;4937074;29;20204;-64
2022/12/05 15:50:37;;;;;;;9.18;6.78;;;6.10;99.90;;;;;;4921226;29;20219;-63
2022/12/05 15:53:13;;;;;;;9.93;6.63;;;6.10;99.90;;;;;;4918095;29;20228;-63
2022/12/05 15:55:43;;;;;;;9.13;6.07;;;6.00;99.90;;;;;;4919462;29;20277;-63
2022/12/05 15:58:27;;;;;;;7.70;5.57;;;5.90;99.90;;;;;;4919597;29;20172;-64
2022/12/05 16:00:59;;;;;;;9.15;6.30;;;5.80;99.90;;;;;;4934884;29;20180;-63
2022/12/05 16:03:49;;;;;;;6.57;5.45;;;5.70;99.90;;;;;;4933579;29;20182;-63
2022/12/05 16:06:54;;;;;;;6.47;5.60;;;5.60;99.90;;;;;;4919126;29;20188;-63
2022/12/05 16:09:23;;;;;;;11.05;6.97;;;5.50;99.90;;;;;;4898290;29;20665;-63
2022/12/05 16:12:01;;;;;;;8.65;6.65;;;5.40;99.90;;;;;;4897588;29;20207;-64
2022/12/05 16:14:35;;;;;;;5.90;5.20;;;5.30;99.90;;;;;;4891151;29;20211;-64
2022/12/05 16:17:03;;;;;;;8.35;6.30;;;5.30;99.90;;;;;;4898180;29;20179;-64
2022/12/05 16:19:29;;;;;;;8.05;5.00;;;5.30;99.90;;;;;;4895432;29;20178;-66
2022/12/05 16:22:05;;;;;;;8.47;6.83;;;5.20;99.90;;;;;;4903487;29;21652;-62
2022/12/05 16:24:37;;;;;;;9.00;5.32;;;5.20;99.90;;;;;;4901896;29;20443;-63
2022/12/05 16:27:11;;;;;;;7.18;6.10;;;5.20;99.90;;;;;;4897032;29;20191;-63
2022/12/05 16:29:36;;;;;;;7.00;5.93;;;5.10;99.90;;;;;;4897106;29;20231;-63
2022/12/05 16:32:13;;;;;;;6.30;5.20;;;5.10;99.90;;;;;;4901827;29;20222;-62
2022/12/05 16:34:39;;;;;;;6.18;5.57;;;5.10;99.90;;;;;;4896985;29;20671;-63
2022/12/05 16:37:06;;;;;;;9.77;7.50;;;5.00;99.90;;;;;;4881906;29;20179;-62
2022/12/05 16:39:33;;;;;;;16.40;10.50;;;5.00;99.90;;;;;;4909030;29;20187;-62
2022/12/05 16:41:58;;;;;;;9.23;6.43;;;5.00;99.90;;;;;;4926104;29;20191;-63
2022/12/05 16:44:27;;;;;;;6.07;4.90;;;5.00;99.90;;;;;;4918476;29;20680;-64
2022/12/05 16:46:54;;;;;;;14.38;8.43;;;5.00;99.90;;;;;;4918694;29;20181;-66
2022/12/05 16:49:29;;;;;;;19.17;12.98;;;5.00;99.90;;;;;;4937316;29;20181;-66
2022/12/05 16:52:00;;;;;;;9.50;7.85;;;5.00;99.90;;;;;;4937021;29;20208;-63
2022/12/05 16:54:26;;;;;;;21.80;13.75;;;5.00;99.90;;;;;;4937760;29;20207;-64
2022/12/05 16:56:52;;;;;;;9.40;8.40;;;5.00;99.90;;;;;;4935898;29;20179;-63
2022/12/05 16:59:34;;;;;;;11.20;8.37;;;5.00;99.90;;;;;;4924774;29;20530;-62
2022/12/05 17:02:03;;;;;;;10.23;6.38;;;5.00;99.90;;;;;;4937107;29;20797;-62
2022/12/05 17:04:30;;;;;;;8.00;7.20;;;5.00;99.90;;;;;;4937200;29;20224;-61
2022/12/05 17:06:56;;;;;;;7.72;5.95;;;5.10;99.90;;;;;;4937483;29;20192;-63
2022/12/05 17:09:22;;;;;;;9.77;5.90;;;5.10;99.90;;;;;;4939084;29;20182;-62
2022/12/05 17:11:50;;;;;;;9.63;7.13;;;5.10;99.90;;;;;;4946420;29;20253;-61
2022/12/05 17:14:17;;;;;;;13.43;7.60;;;5.20;99.90;;;;;;4921793;29;20282;-63
2022/12/05 17:16:43;;;;;;;11.50;8.05;;;5.30;99.90;;;;;;4924735;29;20184;-63
2022/12/05 17:19:10;;;;;;;12.83;7.43;;;5.40;99.90;;;;;;4936845;29;20269;-62
2022/12/05 17:21:36;;;;;;;12.98;6.85;;;5.30;99.90;;;;;;4935452;29;20911;-63
2022/12/05 17:24:02;;;;;;;11.48;8.10;;;5.40;99.90;;;;;;4917832;29;20216;-63
2022/12/05 17:26:28;;;;;;;11.70;6.97;;;5.40;99.90;;;;;;4918007;29;20694;-62
2022/12/05 17:28:54;;;;;;;10.23;8.50;;;5.40;99.90;;;;;;4931869;29;20425;-63
2022/12/05 17:31:23;;;;;;;9.57;6.70;;;5.40;99.90;;;;;;4933009;29;20214;-61
2022/12/05 17:33:50;;;;;;;11.45;7.20;;;5.40;99.90;;;;;;4936631;29;20201;-63
2022/12/05 17:36:16;;;;;;;8.45;7.43;;;5.40;99.90;;;;;;4936690;29;20530;-62
2022/12/05 17:38:42;;;;;;;9.88;6.60;;;5.40;99.90;;;;;;4936716;29;20188;-62
2022/12/05 17:41:17;;;;;;;9.63;7.07;;;5.50;99.90;;;;;;4924765;29;20183;-61
2022/12/05 17:43:44;;;;;;;12.05;9.20;;;5.50;99.90;;;;;;4936163;29;20229;-63
2022/12/05 17:46:11;;;;;;;9.55;7.57;;;5.60;99.90;;;;;;4935040;29;20179;-61
2022/12/05 17:48:37;;;;;;;15.80;9.30;;;5.60;99.90;;;;;;4936622;29;20194;-61
2022/12/05 17:51:05;;;;;;;10.83;8.20;;;5.70;99.90;;;;;;4936468;29;20170;-63
2022/12/05 17:53:31;;;;;;;8.10;6.63;;;5.70;99.90;;;;;;4935701;29;20193;-62
2022/12/05 17:55:56;;;;;;;13.60;8.83;;;5.80;99.90;;;;;;4934828;29;20646;-63
2022/12/05 17:58:22;;;;;;;10.60;9.53;;;5.70;99.90;;;;;;4936243;29;20621;-61
2022/12/05 18:00:47;;;;;;;13.40;9.27;;;5.70;99.90;;;;;;4930483;29;20188;-61
2022/12/05 18:03:15;;;;;;;7.93;6.77;;;5.70;99.90;;;;;;4917345;29;20544;-63
2022/12/05 18:05:41;;;;;;;9.70;7.47;;;5.70;99.90;;;;;;4917417;29;20205;-61
2022/12/05 18:08:08;;;;;;;10.70;7.20;;;5.70;99.90;;;;;;4917663;29;20780;-60
2022/12/05 18:10:34;;;;;;;8.77;5.97;;;5.70;99.90;;;;;;4923190;29;20787;-61
2022/12/05 18:13:00;;;;;;;12.60;8.90;;;5.60;99.90;;;;;;4936172;29;20207;-64
2022/12/05 18:15:25;;;;;;;8.70;7.87;;;5.60;99.90;;;;;;4931240;29;20670;-62
2022/12/05 18:17:51;;;;;;;10.10;7.70;;;5.60;99.90;;;;;;4920124;29;20184;-67
2022/12/05 18:20:17;;;;;;;8.20;7.50;;;5.60;99.90;;;;;;4925825;29;20189;-60
2022/12/05 18:22:43;;;;;;;9.37;6.73;;;5.60;99.90;;;;;;4916838;29;20193;-62
2022/12/05 18:25:09;;;;;;;13.88;7.65;;;5.70;99.90;;;;;;4929579;29;20266;-61
2022/12/05 18:27:36;;;;;;;16.20;8.93;;;5.70;99.90;;;;;;4926788;29;20226;-63
2022/12/05 18:30:04;;;;;;;9.73;7.72;;;5.70;99.90;;;;;;4933114;29;20658;-63
2022/12/05 18:32:30;;;;;;;16.17;7.78;;;5.70;99.90;;;;;;4934847;29;20203;-64
2022/12/05 18:34:57;;;;;;;8.30;7.00;;;5.70;99.90;;;;;;4935921;29;20534;-63